CES5648 ZSAM-ZSSS
Flight info
| Callsign | CES5648 |
|---|---|
| Flight time | 1h 3m |
| Altitude | 31100 |
| Route | DOVPU9Z DOVPU W643 FOC W644 ANLUD B221 SHZ G204 AND AND71A |
| Aircraft | A359/H-SDE2E3GHIJ3J4J5LM1ORWXY/LB1D1 |
Departure
| Time | 2026-04-29 12:59 |
|---|---|
| Airport | Xiamen Gaoqi International Airport (ZSAM) |
Arrival
| Time | 2026-04-29 14:02 |
|---|---|
| Airport | Shanghai Hongqiao International Airport (ZSSS) |
| Time | Latitude | Longitude | Altitude | Speed | Heading |
|---|---|---|---|---|---|
| 2026-04-29 12:44 | 24.54756 | 118.13948 | 53 ft | 0 kts | 53° |
| 2026-04-29 12:49 | 24.54748 | 118.13937 | 46 ft | 4 kts | 53° |
| 2026-04-29 12:49 | 24.54733 | 118.13915 | 46 ft | 2 kts | 53° |
| 2026-04-29 12:49 | 24.54719 | 118.13898 | 46 ft | 4 kts | 26° |
| 2026-04-29 12:50 | 24.54702 | 118.13892 | 46 ft | 4 kts | 343° |
| 2026-04-29 12:50 | 24.54680 | 118.13904 | 46 ft | 4 kts | 323° |
| 2026-04-29 12:50 | 24.54670 | 118.13912 | 46 ft | 0 kts | 321° |
| 2026-04-29 12:53 | 24.54681 | 118.13902 | 46 ft | 5 kts | 322° |
| 2026-04-29 12:53 | 24.54732 | 118.13859 | 46 ft | 13 kts | 322° |
| 2026-04-29 12:53 | 24.54806 | 118.13776 | 51 ft | 15 kts | 281° |
| 2026-04-29 12:54 | 24.54756 | 118.13665 | 51 ft | 19 kts | 232° |
| 2026-04-29 12:54 | 24.54672 | 118.13545 | 48 ft | 14 kts | 232° |
| 2026-04-29 12:54 | 24.54648 | 118.13448 | 49 ft | 14 kts | 303° |
| 2026-04-29 12:54 | 24.54653 | 118.13399 | 53 ft | 4 kts | 234° |
| 2026-04-29 12:55 | 24.54622 | 118.13350 | 55 ft | 11 kts | 233° |
| 2026-04-29 12:55 | 24.54562 | 118.13265 | 49 ft | 17 kts | 231° |
| 2026-04-29 12:55 | 24.54477 | 118.13146 | 50 ft | 22 kts | 232° |
| 2026-04-29 12:55 | 24.54370 | 118.12997 | 51 ft | 27 kts | 232° |
| 2026-04-29 12:56 | 24.54246 | 118.12823 | 52 ft | 31 kts | 232° |
| 2026-04-29 12:56 | 24.54105 | 118.12626 | 54 ft | 34 kts | 232° |
| 2026-04-29 12:56 | 24.53960 | 118.12424 | 55 ft | 31 kts | 232° |
| 2026-04-29 12:56 | 24.53822 | 118.12229 | 57 ft | 34 kts | 232° |
| 2026-04-29 12:57 | 24.53670 | 118.12016 | 62 ft | 36 kts | 231° |
| 2026-04-29 12:57 | 24.53584 | 118.11897 | 61 ft | 19 kts | 232° |
| 2026-04-29 12:57 | 24.53490 | 118.11767 | 62 ft | 24 kts | 232° |
| 2026-04-29 12:57 | 24.53402 | 118.11624 | 65 ft | 17 kts | 255° |
| 2026-04-29 12:58 | 24.53441 | 118.11495 | 61 ft | 19 kts | 323° |
| 2026-04-29 12:58 | 24.53518 | 118.11519 | 64 ft | 11 kts | 47° |
| 2026-04-29 12:58 | 24.53597 | 118.11627 | 62 ft | 41 kts | 51° |
| 2026-04-29 12:58 | 24.53941 | 118.12110 | 55 ft | 117 kts | 52° |
| 2026-04-29 12:59 | 24.54565 | 118.12980 | 265 ft | 160 kts | 53° |
| 2026-04-29 12:59 | 24.55229 | 118.13909 | 1161 ft | 149 kts | 53° |
| 2026-04-29 12:59 | 24.55861 | 118.14800 | 2069 ft | 146 kts | 53° |
| 2026-04-29 12:59 | 24.56491 | 118.15691 | 2677 ft | 157 kts | 52° |
| 2026-04-29 13:00 | 24.57185 | 118.16676 | 3191 ft | 165 kts | 51° |
| 2026-04-29 13:00 | 24.57919 | 118.17710 | 3626 ft | 183 kts | 50° |
| 2026-04-29 13:00 | 24.58765 | 118.18891 | 3870 ft | 211 kts | 50° |
| 2026-04-29 13:00 | 24.59737 | 118.20252 | 4171 ft | 241 kts | 50° |
| 2026-04-29 13:01 | 24.60830 | 118.21767 | 4612 ft | 263 kts | 49° |
| 2026-04-29 13:01 | 24.62091 | 118.23290 | 5265 ft | 274 kts | 43° |
| 2026-04-29 13:01 | 24.63483 | 118.24746 | 6035 ft | 283 kts | 41° |
| 2026-04-29 13:01 | 24.64945 | 118.26235 | 6838 ft | 290 kts | 42° |
| 2026-04-29 13:02 | 24.66445 | 118.27767 | 7711 ft | 296 kts | 42° |
| 2026-04-29 13:02 | 24.67972 | 118.29328 | 8601 ft | 303 kts | 41° |
| 2026-04-29 13:02 | 24.69532 | 118.30923 | 9535 ft | 309 kts | 41° |
| 2026-04-29 13:02 | 24.71128 | 118.32555 | 10347 ft | 319 kts | 41° |
| 2026-04-29 13:03 | 24.72813 | 118.34281 | 10774 ft | 341 kts | 42° |
| 2026-04-29 13:03 | 24.74536 | 118.36149 | 11139 ft | 363 kts | 44° |
| 2026-04-29 13:03 | 24.76321 | 118.38211 | 11566 ft | 380 kts | 46° |
| 2026-04-29 13:03 | 24.78149 | 118.40367 | 12182 ft | 390 kts | 46° |
| 2026-04-29 13:04 | 24.80007 | 118.42574 | 12846 ft | 397 kts | 46° |
| 2026-04-29 13:04 | 24.81905 | 118.44832 | 13552 ft | 403 kts | 46° |
| 2026-04-29 13:04 | 24.83823 | 118.47110 | 14199 ft | 408 kts | 46° |
| 2026-04-29 13:04 | 24.85768 | 118.49417 | 14818 ft | 413 kts | 46° |
| 2026-04-29 13:05 | 24.87734 | 118.51740 | 15443 ft | 417 kts | 46° |
| 2026-04-29 13:05 | 24.89732 | 118.54079 | 16066 ft | 421 kts | 45° |
| 2026-04-29 13:05 | 24.91756 | 118.56443 | 16686 ft | 426 kts | 45° |
| 2026-04-29 13:05 | 24.93802 | 118.58835 | 17308 ft | 430 kts | 45° |
| 2026-04-29 13:06 | 24.95866 | 118.61251 | 17906 ft | 435 kts | 45° |
| 2026-04-29 13:06 | 24.97924 | 118.63663 | 18462 ft | 439 kts | 46° |
| 2026-04-29 13:06 | 25.00033 | 118.66138 | 18991 ft | 444 kts | 45° |
| 2026-04-29 13:06 | 25.02160 | 118.68634 | 19517 ft | 447 kts | 45° |
| 2026-04-29 13:07 | 25.04304 | 118.71151 | 20080 ft | 451 kts | 45° |
| 2026-04-29 13:07 | 25.06466 | 118.73689 | 20621 ft | 455 kts | 45° |
| 2026-04-29 13:07 | 25.08648 | 118.76252 | 21159 ft | 459 kts | 45° |
| 2026-04-29 13:07 | 25.10839 | 118.78829 | 21743 ft | 462 kts | 45° |
| 2026-04-29 13:08 | 25.13020 | 118.81394 | 22300 ft | 465 kts | 45° |
| 2026-04-29 13:08 | 25.15247 | 118.84015 | 22852 ft | 469 kts | 45° |
| 2026-04-29 13:08 | 25.17485 | 118.86650 | 23393 ft | 472 kts | 45° |
| 2026-04-29 13:08 | 25.19743 | 118.89310 | 23859 ft | 476 kts | 45° |
| 2026-04-29 13:09 | 25.22017 | 118.91992 | 24291 ft | 480 kts | 45° |
| 2026-04-29 13:09 | 25.24305 | 118.94691 | 24770 ft | 483 kts | 45° |
| 2026-04-29 13:09 | 25.26615 | 118.97416 | 25253 ft | 486 kts | 45° |
| 2026-04-29 13:09 | 25.28921 | 119.00114 | 25750 ft | 490 kts | 45° |
| 2026-04-29 13:10 | 25.31294 | 119.02874 | 26253 ft | 494 kts | 45° |
| 2026-04-29 13:10 | 25.33674 | 119.05636 | 26751 ft | 498 kts | 44° |
| 2026-04-29 13:10 | 25.36072 | 119.08420 | 27257 ft | 501 kts | 44° |
| 2026-04-29 13:10 | 25.38485 | 119.11226 | 27769 ft | 505 kts | 45° |
| 2026-04-29 13:11 | 25.40886 | 119.14020 | 28259 ft | 509 kts | 45° |
| 2026-04-29 13:11 | 25.43338 | 119.16878 | 28737 ft | 513 kts | 45° |
| 2026-04-29 13:11 | 25.45807 | 119.19759 | 29199 ft | 517 kts | 45° |
| 2026-04-29 13:11 | 25.48291 | 119.22659 | 29656 ft | 521 kts | 45° |
| 2026-04-29 13:12 | 25.50790 | 119.25580 | 30102 ft | 525 kts | 45° |
| 2026-04-29 13:12 | 25.53311 | 119.28528 | 30474 ft | 529 kts | 45° |
| 2026-04-29 13:12 | 25.55842 | 119.31499 | 30813 ft | 533 kts | 45° |
| 2026-04-29 13:12 | 25.58399 | 119.34515 | 31075 ft | 537 kts | 45° |
| 2026-04-29 13:13 | 25.60960 | 119.37543 | 31157 ft | 543 kts | 45° |
| 2026-04-29 13:13 | 25.66153 | 119.43692 | 31161 ft | 547 kts | 45° |
| 2026-04-29 13:14 | 25.71356 | 119.49859 | 31172 ft | 548 kts | 45° |
| 2026-04-29 13:14 | 25.76631 | 119.55863 | 31185 ft | 546 kts | 38° |
| 2026-04-29 13:15 | 25.82949 | 119.60426 | 31204 ft | 541 kts | 26° |
| 2026-04-29 13:15 | 25.89619 | 119.64320 | 31203 ft | 540 kts | 23° |
| 2026-04-29 13:16 | 25.96344 | 119.68054 | 31197 ft | 541 kts | 22° |
| 2026-04-29 13:16 | 26.03082 | 119.71766 | 31200 ft | 541 kts | 21° |
| 2026-04-29 13:17 | 26.09906 | 119.75332 | 31186 ft | 541 kts | 21° |
| 2026-04-29 13:17 | 26.16719 | 119.78880 | 31171 ft | 541 kts | 21° |
| 2026-04-29 13:18 | 26.23541 | 119.82445 | 31159 ft | 541 kts | 21° |
| 2026-04-29 13:18 | 26.30342 | 119.86010 | 31157 ft | 541 kts | 21° |
| 2026-04-29 13:19 | 26.37112 | 119.89565 | 31158 ft | 541 kts | 21° |
| 2026-04-29 13:19 | 26.43912 | 119.93140 | 31161 ft | 541 kts | 21° |
| 2026-04-29 13:20 | 26.50721 | 119.96724 | 31164 ft | 541 kts | 21° |
| 2026-04-29 13:20 | 26.57525 | 120.00310 | 31169 ft | 541 kts | 20° |
| 2026-04-29 13:21 | 26.64330 | 120.03901 | 31172 ft | 541 kts | 21° |
| 2026-04-29 13:21 | 26.71140 | 120.07500 | 31177 ft | 541 kts | 21° |
| 2026-04-29 13:22 | 26.77957 | 120.11107 | 31179 ft | 541 kts | 20° |
| 2026-04-29 13:22 | 26.84772 | 120.14719 | 31181 ft | 542 kts | 21° |
| 2026-04-29 13:23 | 26.91592 | 120.18336 | 31189 ft | 543 kts | 21° |
| 2026-04-29 13:23 | 26.98377 | 120.21940 | 31192 ft | 543 kts | 21° |
| 2026-04-29 13:24 | 27.05208 | 120.25574 | 31197 ft | 543 kts | 21° |
| 2026-04-29 13:24 | 27.12036 | 120.29212 | 31201 ft | 543 kts | 21° |
| 2026-04-29 13:25 | 27.18868 | 120.32857 | 31207 ft | 544 kts | 21° |
| 2026-04-29 13:25 | 27.29120 | 120.38335 | 31214 ft | 544 kts | 21° |
| 2026-04-29 13:26 | 27.35965 | 120.41997 | 31213 ft | 544 kts | 21° |
| 2026-04-29 13:26 | 27.42807 | 120.45664 | 31217 ft | 545 kts | 21° |
| 2026-04-29 13:27 | 27.49658 | 120.49345 | 31220 ft | 545 kts | 21° |
| 2026-04-29 13:27 | 27.56498 | 120.53023 | 31217 ft | 545 kts | 21° |
| 2026-04-29 13:28 | 27.63333 | 120.56700 | 31218 ft | 546 kts | 21° |
| 2026-04-29 13:28 | 27.70183 | 120.60391 | 31218 ft | 546 kts | 21° |
| 2026-04-29 13:29 | 27.77287 | 120.63047 | 31221 ft | 532 kts | 4° |
| 2026-04-29 13:29 | 27.84541 | 120.64084 | 31221 ft | 529 kts | 1° |
| 2026-04-29 13:30 | 27.91822 | 120.65616 | 31226 ft | 533 kts | 6° |
| 2026-04-29 13:30 | 27.99099 | 120.67334 | 31227 ft | 534 kts | 6° |
| 2026-04-29 13:31 | 28.06372 | 120.69058 | 31226 ft | 534 kts | 6° |
| 2026-04-29 13:31 | 28.12419 | 120.70491 | 31228 ft | 534 kts | 6° |
| 2026-04-29 13:32 | 28.20922 | 120.72507 | 31227 ft | 534 kts | 6° |
| 2026-04-29 13:32 | 28.26971 | 120.73944 | 31232 ft | 535 kts | 6° |
| 2026-04-29 13:33 | 28.35495 | 120.75971 | 31235 ft | 535 kts | 6° |
| 2026-04-29 13:33 | 28.41560 | 120.77415 | 31228 ft | 536 kts | 6° |
| 2026-04-29 13:34 | 28.48737 | 120.79125 | 31242 ft | 536 kts | 6° |
| 2026-04-29 13:34 | 28.56044 | 120.80872 | 31242 ft | 537 kts | 6° |
| 2026-04-29 13:35 | 28.63358 | 120.82622 | 31249 ft | 537 kts | 6° |
| 2026-04-29 13:35 | 28.70681 | 120.84374 | 31249 ft | 537 kts | 6° |
| 2026-04-29 13:36 | 28.78002 | 120.86129 | 31254 ft | 538 kts | 6° |
| 2026-04-29 13:36 | 28.85345 | 120.87892 | 31257 ft | 539 kts | 6° |
| 2026-04-29 13:37 | 28.92691 | 120.89659 | 31259 ft | 540 kts | 6° |
| 2026-04-29 13:37 | 29.00047 | 120.91432 | 31260 ft | 541 kts | 6° |
| 2026-04-29 13:38 | 29.07377 | 120.93199 | 31267 ft | 541 kts | 6° |
| 2026-04-29 13:38 | 29.14749 | 120.94980 | 31271 ft | 541 kts | 6° |
| 2026-04-29 13:39 | 29.22130 | 120.96765 | 31274 ft | 542 kts | 6° |
| 2026-04-29 13:39 | 29.29114 | 120.98457 | 31278 ft | 543 kts | 6° |
| 2026-04-29 13:40 | 29.36513 | 121.00252 | 31279 ft | 544 kts | 6° |
| 2026-04-29 13:40 | 29.43931 | 121.02056 | 31283 ft | 545 kts | 6° |
| 2026-04-29 13:41 | 29.50930 | 121.03758 | 31280 ft | 545 kts | 6° |
| 2026-04-29 13:41 | 29.58361 | 121.05566 | 31281 ft | 546 kts | 6° |
| 2026-04-29 13:42 | 29.65789 | 121.07379 | 31287 ft | 546 kts | 6° |
| 2026-04-29 13:42 | 29.73224 | 121.09196 | 31290 ft | 547 kts | 6° |
| 2026-04-29 13:43 | 29.80673 | 121.11019 | 31292 ft | 547 kts | 6° |
| 2026-04-29 13:43 | 29.87882 | 121.12796 | 30602 ft | 520 kts | 6° |
| 2026-04-29 13:44 | 29.91380 | 121.13656 | 29203 ft | 511 kts | 6° |
| 2026-04-29 13:44 | 29.94861 | 121.14502 | 27395 ft | 512 kts | 6° |
| 2026-04-29 13:44 | 29.98350 | 121.15351 | 25640 ft | 512 kts | 6° |
| 2026-04-29 13:44 | 30.01817 | 121.16204 | 24119 ft | 506 kts | 6° |
| 2026-04-29 13:45 | 30.05232 | 121.17050 | 22529 ft | 496 kts | 6° |
| 2026-04-29 13:45 | 30.08567 | 121.17877 | 21067 ft | 483 kts | 6° |
| 2026-04-29 13:45 | 30.11758 | 121.18669 | 19741 ft | 468 kts | 6° |
| 2026-04-29 13:45 | 30.14891 | 121.19445 | 18439 ft | 454 kts | 6° |
| 2026-04-29 13:46 | 30.17934 | 121.20198 | 16943 ft | 440 kts | 6° |
| 2026-04-29 13:46 | 30.20894 | 121.20928 | 15454 ft | 430 kts | 6° |
| 2026-04-29 13:46 | 30.23787 | 121.21640 | 14030 ft | 419 kts | 7° |
| 2026-04-29 13:46 | 30.26615 | 121.22230 | 12436 ft | 407 kts | 4° |
| 2026-04-29 13:47 | 30.29387 | 121.22718 | 10971 ft | 398 kts | 4° |
| 2026-04-29 13:47 | 30.32057 | 121.23186 | 10079 ft | 376 kts | 5° |
| 2026-04-29 13:47 | 30.34537 | 121.23627 | 9492 ft | 347 kts | 5° |
| 2026-04-29 13:47 | 30.36881 | 121.24039 | 9146 ft | 334 kts | 5° |
| 2026-04-29 13:48 | 30.39136 | 121.24434 | 8916 ft | 321 kts | 5° |
| 2026-04-29 13:48 | 30.41303 | 121.24816 | 8708 ft | 309 kts | 5° |
| 2026-04-29 13:48 | 30.43389 | 121.25185 | 8513 ft | 298 kts | 6° |
| 2026-04-29 13:48 | 30.45407 | 121.25543 | 8231 ft | 290 kts | 6° |
| 2026-04-29 13:49 | 30.47392 | 121.25896 | 7879 ft | 286 kts | 6° |
| 2026-04-29 13:49 | 30.49326 | 121.26241 | 7542 ft | 282 kts | 6° |
| 2026-04-29 13:49 | 30.51248 | 121.26583 | 7232 ft | 277 kts | 7° |
| 2026-04-29 13:49 | 30.53143 | 121.26919 | 6898 ft | 273 kts | 7° |
| 2026-04-29 13:50 | 30.55005 | 121.27250 | 6583 ft | 269 kts | 8° |
| 2026-04-29 13:50 | 30.56845 | 121.27580 | 6227 ft | 265 kts | 8° |
| 2026-04-29 13:50 | 30.58664 | 121.27909 | 5858 ft | 263 kts | 9° |
| 2026-04-29 13:50 | 30.60460 | 121.28233 | 5484 ft | 260 kts | 9° |
| 2026-04-29 13:51 | 30.62235 | 121.28552 | 5098 ft | 258 kts | 9° |
| 2026-04-29 13:51 | 30.64000 | 121.28870 | 4708 ft | 256 kts | 9° |
| 2026-04-29 13:51 | 30.65756 | 121.29186 | 4277 ft | 255 kts | 9° |
| 2026-04-29 13:51 | 30.67501 | 121.29500 | 3879 ft | 253 kts | 10° |
| 2026-04-29 13:52 | 30.69239 | 121.29813 | 3482 ft | 251 kts | 10° |
| 2026-04-29 13:52 | 30.70963 | 121.30123 | 3087 ft | 249 kts | 11° |
| 2026-04-29 13:52 | 30.72671 | 121.30432 | 2692 ft | 247 kts | 11° |
| 2026-04-29 13:52 | 30.74365 | 121.30740 | 2298 ft | 245 kts | 11° |
| 2026-04-29 13:53 | 30.76041 | 121.31049 | 2040 ft | 242 kts | 11° |
| 2026-04-29 13:53 | 30.77700 | 121.31368 | 1992 ft | 242 kts | 12° |
| 2026-04-29 13:53 | 30.79360 | 121.31691 | 1992 ft | 242 kts | 11° |
| 2026-04-29 13:53 | 30.81020 | 121.32006 | 1992 ft | 242 kts | 11° |
| 2026-04-29 13:54 | 30.82678 | 121.32314 | 1993 ft | 242 kts | 11° |
| 2026-04-29 13:54 | 30.84319 | 121.32617 | 1994 ft | 242 kts | 11° |
| 2026-04-29 13:54 | 30.85981 | 121.32923 | 1993 ft | 242 kts | 11° |
| 2026-04-29 13:54 | 30.87642 | 121.33227 | 2000 ft | 241 kts | 11° |
| 2026-04-29 13:55 | 30.89242 | 121.33513 | 1988 ft | 224 kts | 11° |
| 2026-04-29 13:55 | 30.90729 | 121.33778 | 1988 ft | 208 kts | 11° |
| 2026-04-29 13:55 | 30.92132 | 121.34028 | 2002 ft | 202 kts | 11° |
| 2026-04-29 13:55 | 30.93511 | 121.34278 | 1997 ft | 201 kts | 11° |
| 2026-04-29 13:56 | 30.94855 | 121.34528 | 1992 ft | 189 kts | 12° |
| 2026-04-29 13:56 | 30.96172 | 121.34759 | 1999 ft | 188 kts | 6° |
| 2026-04-29 13:56 | 30.97438 | 121.34776 | 1999 ft | 179 kts | 2° |
| 2026-04-29 13:56 | 30.98694 | 121.34732 | 2002 ft | 177 kts | 1° |
| 2026-04-29 13:57 | 30.99917 | 121.34664 | 2009 ft | 175 kts | 1° |
| 2026-04-29 13:57 | 31.01129 | 121.34595 | 2011 ft | 175 kts | 1° |
| 2026-04-29 13:57 | 31.02346 | 121.34542 | 2011 ft | 175 kts | 2° |
| 2026-04-29 13:57 | 31.03560 | 121.34497 | 2019 ft | 175 kts | 2° |
| 2026-04-29 13:58 | 31.04774 | 121.34447 | 2016 ft | 175 kts | 2° |
| 2026-04-29 13:58 | 31.05973 | 121.34390 | 2012 ft | 175 kts | 1° |
| 2026-04-29 13:58 | 31.07187 | 121.34324 | 2012 ft | 172 kts | 1° |
| 2026-04-29 13:58 | 31.08326 | 121.34256 | 2035 ft | 155 kts | 1° |
| 2026-04-29 13:59 | 31.09354 | 121.34192 | 1901 ft | 143 kts | 1° |
| 2026-04-29 13:59 | 31.10326 | 121.34140 | 1652 ft | 136 kts | 1° |
| 2026-04-29 13:59 | 31.11231 | 121.34093 | 1462 ft | 125 kts | 1° |
| 2026-04-29 13:59 | 31.12080 | 121.34048 | 1308 ft | 121 kts | 1° |
| 2026-04-29 14:00 | 31.12911 | 121.34003 | 1132 ft | 121 kts | 360° |
| 2026-04-29 14:00 | 31.13757 | 121.33956 | 967 ft | 122 kts | 359° |
| 2026-04-29 14:00 | 31.14609 | 121.33910 | 794 ft | 123 kts | 358° |
| 2026-04-29 14:00 | 31.15466 | 121.33863 | 634 ft | 124 kts | 357° |
| 2026-04-29 14:01 | 31.16326 | 121.33815 | 462 ft | 124 kts | 358° |
| 2026-04-29 14:01 | 31.17190 | 121.33769 | 286 ft | 125 kts | 358° |
| 2026-04-29 14:01 | 31.18056 | 121.33727 | 107 ft | 125 kts | 358° |
| 2026-04-29 14:01 | 31.18917 | 121.33685 | 27 ft | 118 kts | 355° |
| 2026-04-29 14:02 | 31.19544 | 121.33642 | 27 ft | 51 kts | 357° |
| 2026-04-29 14:02 | 31.19792 | 121.33629 | 28 ft | 29 kts | 357° |
| 2026-04-29 14:02 | 31.19880 | 121.33551 | 29 ft | 10 kts | 264° |
| 2026-04-29 14:02 | 31.19856 | 121.33454 | 29 ft | 15 kts | 227° |
| 2026-04-29 14:03 | 31.19822 | 121.33315 | 26 ft | 21 kts | 266° |
| 2026-04-29 14:03 | 31.19815 | 121.33127 | 29 ft | 18 kts | 268° |
| 2026-04-29 14:03 | 31.19773 | 121.33044 | 28 ft | 7 kts | 192° |
| 2026-04-29 14:03 | 31.19720 | 121.33058 | 26 ft | 11 kts | 174° |
| 2026-04-29 14:04 | 31.19623 | 121.33058 | 28 ft | 14 kts | 205° |
| 2026-04-29 14:04 | 31.19583 | 121.32936 | 29 ft | 19 kts | 265° |
| 2026-04-29 14:04 | 31.19575 | 121.32761 | 25 ft | 24 kts | 267° |
| 2026-04-29 14:04 | 31.19597 | 121.32620 | 27 ft | 13 kts | 266° |
| 2026-04-29 14:05 | 31.19593 | 121.32536 | 29 ft | 0 kts | 266° |
| 2026-04-29 14:06 | 31.19593 | 121.32541 | 29 ft | 1 kts | 266° |
| 2026-04-29 14:06 | 31.19594 | 121.32554 | 30 ft | 2 kts | 266° |
| 2026-04-29 14:06 | 31.19595 | 121.32566 | 30 ft | 1 kts | 266° |
| 2026-04-29 14:06 | 31.19595 | 121.32571 | 31 ft | 0 kts | 266° |
| 2026-04-29 14:07 | 31.19594 | 121.32542 | 29 ft | 0 kts | 267° |